Main page
METAR-TAF:

METAR-TAF

Airports :

Andravida, Greece

latitude: 37-55N, longitude: 021-17E, elevation: 10 m

Current weather observation

The report was made 20 minutes ago, at 13:50 UTC
Wind 6 kt from the West/Northwest
Temperature 29°C
Humidity 31%
Pressure 1015 hPa
Visibility 10 km or more
Few clouds at a height of 2500 ft

METAR: LGAD 211350Z 29006KT 9999 FEW025 29/10 Q1015

Time: 17:10 (14:10 UTC)

Forecast

The report was made 3 hours and 10 minutes ago, at 11:00 UTC
Forecast valid from 21 at 12 UTC to 21 at 21 UTC
Wind 8 kt from the West/Southwest
Visibility 10 km or more
Few clouds at a height of 2000 ft

TAF: LGAD 211100Z 2112/2121 25008KT 9999 FEW020

Weather observations and forecasts of more than 4000 airports (METAR and TAF reports).

The available stations are represented by yellow and red dots on the map.

Hover mouse over dot to see the name of the station.

Then click to see weather observations and forecasts.

To change the map : click on the green buttons with a black cross to zoom in, on the green button with a dash to zoom out, or on the green arrows for adjacent maps.


METAR-TAF: